sensor_id;sensor_type;location;lat;lon;timestamp;P1;durP1;ratioP1;P2;durP2;ratioP2
48574;SDS011;34352;51.084;3.712;2022-11-15T03:36:04;13.18;;;7.05;;
48574;SDS011;34352;51.084;3.712;2022-11-15T04:16:02;20.15;;;8.10;;
48574;SDS011;34352;51.084;3.712;2022-11-15T04:48:49;15.35;;;7.82;;
48574;SDS011;34352;51.084;3.712;2022-11-15T05:03:30;14.30;;;6.60;;
48574;SDS011;34352;51.084;3.712;2022-11-15T05:11:11;16.92;;;6.10;;
48574;SDS011;34352;51.084;3.712;2022-11-15T05:41:03;13.23;;;6.35;;
48574;SDS011;34352;51.084;3.712;2022-11-15T05:53:21;12.90;;;5.50;;
48574;SDS011;34352;51.084;3.712;2022-11-15T06:56:51;12.43;;;8.48;;
48574;SDS011;34352;51.084;3.712;2022-11-15T07:11:31;14.07;;;7.70;;
48574;SDS011;34352;51.084;3.712;2022-11-15T07:33:34;15.02;;;7.82;;
48574;SDS011;34352;51.084;3.712;2022-11-15T07:36:06;12.00;;;7.18;;
48574;SDS011;34352;51.084;3.712;2022-11-15T07:48:25;12.73;;;7.30;;
48574;SDS011;34352;51.084;3.712;2022-11-15T07:55:47;14.15;;;6.50;;
48574;SDS011;34352;51.084;3.712;2022-11-15T08:08:11;10.55;;;5.78;;
48574;SDS011;34352;51.084;3.712;2022-11-15T08:54:35;6.88;;;2.67;;
48574;SDS011;34352;51.084;3.712;2022-11-15T08:57:06;7.50;;;3.08;;
48574;SDS011;34352;51.084;3.712;2022-11-15T08:59:37;5.18;;;2.70;;
48574;SDS011;34352;51.084;3.712;2022-11-15T12:49:00;7.38;;;2.00;;
48574;SDS011;34352;51.084;3.712;2022-11-15T19:10:28;12.65;;;9.00;;
48574;SDS011;34352;51.084;3.712;2022-11-15T19:12:54;12.10;;;9.30;;
48574;SDS011;34352;51.084;3.712;2022-11-15T19:15:19;11.48;;;9.20;;
48574;SDS011;34352;51.084;3.712;2022-11-15T19:17:45;13.77;;;9.07;;
48574;SDS011;34352;51.084;3.712;2022-11-15T19:20:10;11.75;;;8.27;;
48574;SDS011;34352;51.084;3.712;2022-11-15T19:22:36;11.80;;;8.75;;
48574;SDS011;34352;51.084;3.712;2022-11-15T19:25:05;12.27;;;9.32;;
48574;SDS011;34352;51.084;3.712;2022-11-15T19:27:32;13.32;;;8.57;;
48574;SDS011;34352;51.084;3.712;2022-11-15T19:29:57;12.15;;;8.40;;
48574;SDS011;34352;51.084;3.712;2022-11-15T19:32:23;12.57;;;8.55;;
48574;SDS011;34352;51.084;3.712;2022-11-15T19:34:49;11.38;;;8.40;;
48574;SDS011;34352;51.084;3.712;2022-11-15T19:37:14;11.13;;;9.07;;
48574;SDS011;34352;51.084;3.712;2022-11-15T19:39:40;11.02;;;8.80;;
48574;SDS011;34352;51.084;3.712;2022-11-15T19:42:05;12.23;;;8.70;;
48574;SDS011;34352;51.084;3.712;2022-11-15T19:44:32;11.40;;;8.88;;
48574;SDS011;34352;51.084;3.712;2022-11-15T19:46:58;10.88;;;8.98;;
48574;SDS011;34352;51.084;3.712;2022-11-15T19:49:23;11.20;;;8.25;;
48574;SDS011;34352;51.084;3.712;2022-11-15T19:51:50;15.50;;;9.38;;
48574;SDS011;34352;51.084;3.712;2022-11-15T19:54:15;9.13;;;7.88;;
48574;SDS011;34352;51.084;3.712;2022-11-15T19:56:41;11.23;;;8.18;;
48574;SDS011;34352;51.084;3.712;2022-11-15T19:59:07;9.68;;;8.10;;
48574;SDS011;34352;51.084;3.712;2022-11-15T20:01:35;15.75;;;9.32;;
48574;SDS011;34352;51.084;3.712;2022-11-15T20:04:02;9.13;;;7.85;;
48574;SDS011;34352;51.084;3.712;2022-11-15T20:06:30;11.65;;;8.40;;
48574;SDS011;34352;51.084;3.712;2022-11-15T20:08:57;10.48;;;8.30;;
48574;SDS011;34352;51.084;3.712;2022-11-15T20:11:24;10.90;;;8.18;;
48574;SDS011;34352;51.084;3.712;2022-11-15T20:13:50;10.23;;;8.13;;
48574;SDS011;34352;51.084;3.712;2022-11-15T20:16:20;12.73;;;8.43;;
48574;SDS011;34352;51.084;3.712;2022-11-15T20:18:47;12.65;;;8.85;;
48574;SDS011;34352;51.084;3.712;2022-11-15T20:21:13;11.20;;;8.48;;
48574;SDS011;34352;51.084;3.712;2022-11-15T20:23:39;11.50;;;8.32;;
48574;SDS011;34352;51.084;3.712;2022-11-15T20:26:05;11.10;;;8.85;;
48574;SDS011;34352;51.084;3.712;2022-11-15T20:28:32;13.40;;;8.80;;
48574;SDS011;34352;51.084;3.712;2022-11-15T20:30:58;11.65;;;8.25;;
48574;SDS011;34352;51.084;3.712;2022-11-15T20:33:25;11.45;;;8.25;;
48574;SDS011;34352;51.084;3.712;2022-11-15T20:35:51;10.32;;;8.80;;
48574;SDS011;34352;51.084;3.712;2022-11-15T20:38:18;11.45;;;8.27;;
48574;SDS011;34352;51.084;3.712;2022-11-15T20:40:45;9.85;;;7.93;;
48574;SDS011;34352;51.084;3.712;2022-11-15T20:43:13;11.85;;;9.38;;
48574;SDS011;34352;51.084;3.712;2022-11-15T20:45:44;11.40;;;9.23;;
48574;SDS011;34352;51.084;3.712;2022-11-15T20:48:11;10.80;;;8.70;;
48574;SDS011;34352;51.084;3.712;2022-11-15T20:50:38;10.63;;;9.02;;
48574;SDS011;34352;51.084;3.712;2022-11-15T20:53:05;10.32;;;8.60;;
48574;SDS011;34352;51.084;3.712;2022-11-15T20:55:30;11.68;;;9.15;;
48574;SDS011;34352;51.084;3.712;2022-11-15T20:57:56;11.65;;;9.48;;
48574;SDS011;34352;51.084;3.712;2022-11-15T21:00:21;11.77;;;9.65;;
48574;SDS011;34352;51.084;3.712;2022-11-15T21:02:49;13.35;;;9.40;;
48574;SDS011;34352;51.084;3.712;2022-11-15T21:05:15;15.45;;;9.93;;
48574;SDS011;34352;51.084;3.712;2022-11-15T21:07:41;12.98;;;9.60;;
48574;SDS011;34352;51.084;3.712;2022-11-15T21:10:07;12.85;;;9.38;;
48574;SDS011;34352;51.084;3.712;2022-11-15T21:12:52;13.02;;;10.18;;
48574;SDS011;34352;51.084;3.712;2022-11-15T21:15:18;13.60;;;9.63;;
48574;SDS011;34352;51.084;3.712;2022-11-15T21:17:43;11.70;;;9.10;;
48574;SDS011;34352;51.084;3.712;2022-11-15T21:20:09;11.55;;;8.93;;
48574;SDS011;34352;51.084;3.712;2022-11-15T21:22:35;13.07;;;9.43;;
48574;SDS011;34352;51.084;3.712;2022-11-15T21:25:00;12.32;;;8.88;;
48574;SDS011;34352;51.084;3.712;2022-11-15T21:27:26;13.75;;;9.82;;
48574;SDS011;34352;51.084;3.712;2022-11-15T21:29:52;13.98;;;9.40;;
48574;SDS011;34352;51.084;3.712;2022-11-15T21:32:18;14.30;;;9.90;;
48574;SDS011;34352;51.084;3.712;2022-11-15T21:34:44;12.73;;;9.48;;
48574;SDS011;34352;51.084;3.712;2022-11-15T21:37:10;12.63;;;10.32;;
48574;SDS011;34352;51.084;3.712;2022-11-15T21:39:36;12.55;;;8.95;;
48574;SDS011;34352;51.084;3.712;2022-11-15T21:42:02;11.50;;;9.23;;
48574;SDS011;34352;51.084;3.712;2022-11-15T21:44:28;10.80;;;9.30;;
48574;SDS011;34352;51.084;3.712;2022-11-15T21:46:53;12.70;;;8.98;;
48574;SDS011;34352;51.084;3.712;2022-11-15T21:49:19;11.50;;;9.25;;
48574;SDS011;34352;51.084;3.712;2022-11-15T21:51:48;11.32;;;9.10;;
48574;SDS011;34352;51.084;3.712;2022-11-15T21:54:14;10.48;;;8.77;;
48574;SDS011;34352;51.084;3.712;2022-11-15T21:56:41;11.23;;;8.68;;
48574;SDS011;34352;51.084;3.712;2022-11-15T21:59:08;12.63;;;8.55;;
48574;SDS011;34352;51.084;3.712;2022-11-15T22:01:34;12.73;;;9.23;;
48574;SDS011;34352;51.084;3.712;2022-11-15T22:04:18;10.82;;;8.85;;
48574;SDS011;34352;51.084;3.712;2022-11-15T22:06:45;9.90;;;8.80;;
48574;SDS011;34352;51.084;3.712;2022-11-15T22:09:11;10.18;;;8.52;;
48574;SDS011;34352;51.084;3.712;2022-11-15T22:11:37;12.43;;;8.73;;
48574;SDS011;34352;51.084;3.712;2022-11-15T22:14:02;10.57;;;8.80;;
48574;SDS011;34352;51.084;3.712;2022-11-15T22:16:29;9.93;;;8.50;;
48574;SDS011;34352;51.084;3.712;2022-11-15T22:18:54;10.30;;;8.43;;
48574;SDS011;34352;51.084;3.712;2022-11-15T22:21:20;10.50;;;8.25;;
48574;SDS011;34352;51.084;3.712;2022-11-15T22:23:47;14.10;;;10.43;;
48574;SDS011;34352;51.084;3.712;2022-11-15T22:26:14;27.92;;;22.08;;
48574;SDS011;34352;51.084;3.712;2022-11-15T22:28:41;19.00;;;12.73;;
48574;SDS011;34352;51.084;3.712;2022-11-15T22:31:07;22.70;;;18.05;;
48574;SDS011;34352;51.084;3.712;2022-11-15T22:33:33;19.92;;;15.20;;
48574;SDS011;34352;51.084;3.712;2022-11-15T22:36:00;16.20;;;12.30;;
48574;SDS011;34352;51.084;3.712;2022-11-15T22:38:26;17.27;;;14.80;;
48574;SDS011;34352;51.084;3.712;2022-11-15T22:40:53;13.23;;;11.77;;
48574;SDS011;34352;51.084;3.712;2022-11-15T22:43:20;15.85;;;12.80;;
48574;SDS011;34352;51.084;3.712;2022-11-15T22:48:15;11.32;;;9.55;;
48574;SDS011;34352;51.084;3.712;2022-11-15T22:50:44;14.57;;;11.73;;
48574;SDS011;34352;51.084;3.712;2022-11-15T22:55:40;19.08;;;14.70;;
48574;SDS011;34352;51.084;3.712;2022-11-15T22:58:05;16.65;;;12.63;;
48574;SDS011;34352;51.084;3.712;2022-11-15T23:00:32;13.98;;;8.20;;
48574;SDS011;34352;51.084;3.712;2022-11-15T23:03:00;11.20;;;9.32;;
48574;SDS011;34352;51.084;3.712;2022-11-15T23:05:36;10.75;;;8.52;;
48574;SDS011;34352;51.084;3.712;2022-11-15T23:08:02;11.80;;;9.45;;
48574;SDS011;34352;51.084;3.712;2022-11-15T23:10:28;14.23;;;10.65;;
48574;SDS011;34352;51.084;3.712;2022-11-15T23:13:12;11.43;;;9.50;;
48574;SDS011;34352;51.084;3.712;2022-11-15T23:15:45;12.77;;;8.50;;
48574;SDS011;34352;51.084;3.712;2022-11-15T23:18:57;17.17;;;10.27;;
48574;SDS011;34352;51.084;3.712;2022-11-15T23:21:29;9.27;;;8.27;;
48574;SDS011;34352;51.084;3.712;2022-11-15T23:24:15;10.45;;;8.05;;
48574;SDS011;34352;51.084;3.712;2022-11-15T23:26:41;14.80;;;7.82;;
48574;SDS011;34352;51.084;3.712;2022-11-15T23:29:08;9.98;;;8.27;;
48574;SDS011;34352;51.084;3.712;2022-11-15T23:31:35;11.40;;;8.80;;
48574;SDS011;34352;51.084;3.712;2022-11-15T23:34:19;13.85;;;10.45;;
48574;SDS011;34352;51.084;3.712;2022-11-15T23:36:46;11.73;;;10.10;;
48574;SDS011;34352;51.084;3.712;2022-11-15T23:39:16;10.80;;;8.32;;
48574;SDS011;34352;51.084;3.712;2022-11-15T23:41:42;12.40;;;9.18;;
48574;SDS011;34352;51.084;3.712;2022-11-15T23:44:08;10.45;;;8.70;;
48574;SDS011;34352;51.084;3.712;2022-11-15T23:46:34;11.27;;;7.80;;
48574;SDS011;34352;51.084;3.712;2022-11-15T23:49:00;17.67;;;10.00;;
48574;SDS011;34352;51.084;3.712;2022-11-15T23:51:26;11.15;;;8.75;;
48574;SDS011;34352;51.084;3.712;2022-11-15T23:53:51;13.32;;;9.18;;
48574;SDS011;34352;51.084;3.712;2022-11-15T23:56:18;10.43;;;8.13;;
48574;SDS011;34352;51.084;3.712;2022-11-15T23:58:44;11.30;;;8.73;;
